sensor_id;sensor_type;location;lat;lon;timestamp;P1;durP1;ratioP1;P2;durP2;ratioP2
81672;SDS011;71092;41.158;-8.680;2023-08-20T00:01:00;23.17;;;10.68;;
81672;SDS011;71092;41.158;-8.680;2023-08-20T00:03:29;21.75;;;12.20;;
81672;SDS011;71092;41.158;-8.680;2023-08-20T00:05:55;24.15;;;10.32;;
81672;SDS011;71092;41.158;-8.680;2023-08-20T00:08:21;26.95;;;11.80;;
81672;SDS011;71092;41.158;-8.680;2023-08-20T00:10:47;23.85;;;10.63;;
81672;SDS011;71092;41.158;-8.680;2023-08-20T00:13:13;23.55;;;11.10;;
81672;SDS011;71092;41.158;-8.680;2023-08-20T00:15:39;19.73;;;10.70;;
81672;SDS011;71092;41.158;-8.680;2023-08-20T00:18:05;20.33;;;10.45;;
81672;SDS011;71092;41.158;-8.680;2023-08-20T00:20:31;23.13;;;11.07;;
81672;SDS011;71092;41.158;-8.680;2023-08-20T00:22:57;21.00;;;10.40;;
81672;SDS011;71092;41.158;-8.680;2023-08-20T00:25:23;23.45;;;11.32;;
81672;SDS011;71092;41.158;-8.680;2023-08-20T00:27:49;19.45;;;9.02;;
81672;SDS011;71092;41.158;-8.680;2023-08-20T00:30:15;21.83;;;10.75;;
81672;SDS011;71092;41.158;-8.680;2023-08-20T00:32:41;21.58;;;10.68;;
81672;SDS011;71092;41.158;-8.680;2023-08-20T00:35:07;22.95;;;10.43;;
81672;SDS011;71092;41.158;-8.680;2023-08-20T00:37:34;17.67;;;9.23;;
81672;SDS011;71092;41.158;-8.680;2023-08-20T00:40:01;21.17;;;10.57;;
81672;SDS011;71092;41.158;-8.680;2023-08-20T00:42:30;20.40;;;10.50;;
81672;SDS011;71092;41.158;-8.680;2023-08-20T00:44:55;20.50;;;9.55;;
81672;SDS011;71092;41.158;-8.680;2023-08-20T00:47:21;25.20;;;11.52;;
81672;SDS011;71092;41.158;-8.680;2023-08-20T00:49:48;19.13;;;10.40;;
81672;SDS011;71092;41.158;-8.680;2023-08-20T00:52:15;16.58;;;8.88;;
81672;SDS011;71092;41.158;-8.680;2023-08-20T00:54:42;18.58;;;9.85;;
81672;SDS011;71092;41.158;-8.680;2023-08-20T00:57:10;22.40;;;11.82;;
81672;SDS011;71092;41.158;-8.680;2023-08-20T00:59:42;21.35;;;9.85;;
81672;SDS011;71092;41.158;-8.680;2023-08-20T01:02:09;19.95;;;9.98;;
81672;SDS011;71092;41.158;-8.680;2023-08-20T01:04:35;23.73;;;10.13;;
81672;SDS011;71092;41.158;-8.680;2023-08-20T01:12:06;21.40;;;10.68;;
81672;SDS011;71092;41.158;-8.680;2023-08-20T01:14:32;23.67;;;11.32;;
81672;SDS011;71092;41.158;-8.680;2023-08-20T01:16:59;21.17;;;10.55;;
81672;SDS011;71092;41.158;-8.680;2023-08-20T01:19:25;23.17;;;10.40;;
81672;SDS011;71092;41.158;-8.680;2023-08-20T01:27:39;18.42;;;9.52;;
81672;SDS011;71092;41.158;-8.680;2023-08-20T01:30:10;22.38;;;9.77;;
81672;SDS011;71092;41.158;-8.680;2023-08-20T01:32:38;19.42;;;9.15;;
81672;SDS011;71092;41.158;-8.680;2023-08-20T01:35:13;20.95;;;9.90;;
81672;SDS011;71092;41.158;-8.680;2023-08-20T01:37:39;18.35;;;8.75;;
81672;SDS011;71092;41.158;-8.680;2023-08-20T01:40:06;20.35;;;9.10;;
81672;SDS011;71092;41.158;-8.680;2023-08-20T01:42:35;23.63;;;9.80;;
81672;SDS011;71092;41.158;-8.680;2023-08-20T01:45:00;19.83;;;9.23;;
81672;SDS011;71092;41.158;-8.680;2023-08-20T01:47:26;18.65;;;8.75;;
81672;SDS011;71092;41.158;-8.680;2023-08-20T01:49:52;20.13;;;9.02;;
81672;SDS011;71092;41.158;-8.680;2023-08-20T01:52:18;22.08;;;9.07;;
81672;SDS011;71092;41.158;-8.680;2023-08-20T01:54:44;19.30;;;8.75;;
81672;SDS011;71092;41.158;-8.680;2023-08-20T01:57:10;20.70;;;10.25;;
81672;SDS011;71092;41.158;-8.680;2023-08-20T01:59:35;18.13;;;9.15;;
81672;SDS011;71092;41.158;-8.680;2023-08-20T02:02:01;18.27;;;8.95;;
81672;SDS011;71092;41.158;-8.680;2023-08-20T02:04:28;20.17;;;8.82;;
81672;SDS011;71092;41.158;-8.680;2023-08-20T02:06:54;18.58;;;8.45;;
81672;SDS011;71092;41.158;-8.680;2023-08-20T02:09:19;15.43;;;8.32;;
81672;SDS011;71092;41.158;-8.680;2023-08-20T02:11:46;23.05;;;9.98;;
81672;SDS011;71092;41.158;-8.680;2023-08-20T02:14:12;16.65;;;9.13;;
81672;SDS011;71092;41.158;-8.680;2023-08-20T02:16:37;16.73;;;8.38;;
81672;SDS011;71092;41.158;-8.680;2023-08-20T02:19:04;16.98;;;10.15;;
81672;SDS011;71092;41.158;-8.680;2023-08-20T02:21:31;20.05;;;8.20;;
81672;SDS011;71092;41.158;-8.680;2023-08-20T02:23:57;19.67;;;9.95;;
81672;SDS011;71092;41.158;-8.680;2023-08-20T02:26:23;17.33;;;8.50;;
81672;SDS011;71092;41.158;-8.680;2023-08-20T02:28:49;15.25;;;8.60;;
81672;SDS011;71092;41.158;-8.680;2023-08-20T02:31:15;19.50;;;9.38;;
81672;SDS011;71092;41.158;-8.680;2023-08-20T02:33:41;21.13;;;8.65;;
81672;SDS011;71092;41.158;-8.680;2023-08-20T02:36:12;17.67;;;8.15;;
81672;SDS011;71092;41.158;-8.680;2023-08-20T02:38:38;20.33;;;8.48;;
81672;SDS011;71092;41.158;-8.680;2023-08-20T02:41:04;25.33;;;9.73;;
81672;SDS011;71092;41.158;-8.680;2023-08-20T02:43:30;16.42;;;7.88;;
81672;SDS011;71092;41.158;-8.680;2023-08-20T02:45:55;17.77;;;8.82;;
81672;SDS011;71092;41.158;-8.680;2023-08-20T02:48:21;18.10;;;8.05;;
81672;SDS011;71092;41.158;-8.680;2023-08-20T02:50:53;18.80;;;8.55;;
81672;SDS011;71092;41.158;-8.680;2023-08-20T02:53:20;18.42;;;7.82;;
81672;SDS011;71092;41.158;-8.680;2023-08-20T02:55:46;17.63;;;9.07;;
81672;SDS011;71092;41.158;-8.680;2023-08-20T02:58:12;19.52;;;7.93;;
81672;SDS011;71092;41.158;-8.680;2023-08-20T03:00:38;18.65;;;8.32;;
81672;SDS011;71092;41.158;-8.680;2023-08-20T03:03:05;18.63;;;7.30;;
81672;SDS011;71092;41.158;-8.680;2023-08-20T03:05:36;20.73;;;9.13;;
81672;SDS011;71092;41.158;-8.680;2023-08-20T03:08:02;17.98;;;8.63;;
81672;SDS011;71092;41.158;-8.680;2023-08-20T03:10:31;18.80;;;8.95;;
81672;SDS011;71092;41.158;-8.680;2023-08-20T03:13:01;19.17;;;7.57;;
81672;SDS011;71092;41.158;-8.680;2023-08-20T03:15:27;17.38;;;7.60;;
81672;SDS011;71092;41.158;-8.680;2023-08-20T03:17:54;18.20;;;8.05;;
81672;SDS011;71092;41.158;-8.680;2023-08-20T03:20:19;18.77;;;7.78;;
81672;SDS011;71092;41.158;-8.680;2023-08-20T03:22:46;16.20;;;8.00;;
81672;SDS011;71092;41.158;-8.680;2023-08-20T03:25:11;15.40;;;7.78;;
81672;SDS011;71092;41.158;-8.680;2023-08-20T03:27:38;17.45;;;7.53;;
81672;SDS011;71092;41.158;-8.680;2023-08-20T03:30:04;16.30;;;7.20;;
81672;SDS011;71092;41.158;-8.680;2023-08-20T03:32:31;18.15;;;9.02;;
81672;SDS011;71092;41.158;-8.680;2023-08-20T03:34:57;18.10;;;7.95;;
81672;SDS011;71092;41.158;-8.680;2023-08-20T03:37:28;20.58;;;8.60;;
81672;SDS011;71092;41.158;-8.680;2023-08-20T03:39:53;18.52;;;8.52;;
81672;SDS011;71092;41.158;-8.680;2023-08-20T03:42:19;16.60;;;8.55;;
81672;SDS011;71092;41.158;-8.680;2023-08-20T03:44:47;18.17;;;7.45;;
81672;SDS011;71092;41.158;-8.680;2023-08-20T03:47:13;18.42;;;7.82;;
81672;SDS011;71092;41.158;-8.680;2023-08-20T03:49:39;19.33;;;8.15;;
81672;SDS011;71092;41.158;-8.680;2023-08-20T03:52:06;17.67;;;8.25;;
81672;SDS011;71092;41.158;-8.680;2023-08-20T03:54:32;18.00;;;8.07;;
81672;SDS011;71092;41.158;-8.680;2023-08-20T03:56:59;19.75;;;8.98;;
81672;SDS011;71092;41.158;-8.680;2023-08-20T03:59:24;20.63;;;7.65;;
81672;SDS011;71092;41.158;-8.680;2023-08-20T04:01:50;17.55;;;8.27;;
81672;SDS011;71092;41.158;-8.680;2023-08-20T04:04:16;17.88;;;7.72;;
81672;SDS011;71092;41.158;-8.680;2023-08-20T04:06:42;18.98;;;7.65;;
81672;SDS011;71092;41.158;-8.680;2023-08-20T04:09:08;15.88;;;7.20;;
81672;SDS011;71092;41.158;-8.680;2023-08-20T04:11:35;15.25;;;6.72;;
81672;SDS011;71092;41.158;-8.680;2023-08-20T04:14:02;16.13;;;7.93;;
81672;SDS011;71092;41.158;-8.680;2023-08-20T04:16:29;13.60;;;7.25;;
81672;SDS011;71092;41.158;-8.680;2023-08-20T04:18:55;15.07;;;7.72;;
81672;SDS011;71092;41.158;-8.680;2023-08-20T04:21:21;18.38;;;6.50;;
81672;SDS011;71092;41.158;-8.680;2023-08-20T04:23:47;18.13;;;6.47;;
81672;SDS011;71092;41.158;-8.680;2023-08-20T04:26:13;16.48;;;6.78;;
81672;SDS011;71092;41.158;-8.680;2023-08-20T04:28:39;16.73;;;7.40;;
81672;SDS011;71092;41.158;-8.680;2023-08-20T04:31:06;14.65;;;7.68;;
81672;SDS011;71092;41.158;-8.680;2023-08-20T04:33:47;16.15;;;6.72;;
81672;SDS011;71092;41.158;-8.680;2023-08-20T04:36:17;13.68;;;6.88;;
81672;SDS011;71092;41.158;-8.680;2023-08-20T04:38:43;18.30;;;7.50;;
81672;SDS011;71092;41.158;-8.680;2023-08-20T04:41:09;16.20;;;8.20;;
81672;SDS011;71092;41.158;-8.680;2023-08-20T04:43:36;16.30;;;8.10;;
81672;SDS011;71092;41.158;-8.680;2023-08-20T04:46:01;13.52;;;6.30;;
81672;SDS011;71092;41.158;-8.680;2023-08-20T04:48:29;20.80;;;7.72;;
81672;SDS011;71092;41.158;-8.680;2023-08-20T04:50:55;16.65;;;7.82;;
81672;SDS011;71092;41.158;-8.680;2023-08-20T04:53:21;14.13;;;6.72;;
81672;SDS011;71092;41.158;-8.680;2023-08-20T04:55:47;15.65;;;7.50;;
81672;SDS011;71092;41.158;-8.680;2023-08-20T04:58:13;15.73;;;6.70;;
81672;SDS011;71092;41.158;-8.680;2023-08-20T05:00:39;14.48;;;6.85;;
81672;SDS011;71092;41.158;-8.680;2023-08-20T05:03:09;16.55;;;6.88;;
81672;SDS011;71092;41.158;-8.680;2023-08-20T05:05:35;14.65;;;6.85;;
81672;SDS011;71092;41.158;-8.680;2023-08-20T05:08:01;14.68;;;7.32;;
81672;SDS011;71092;41.158;-8.680;2023-08-20T05:10:27;16.35;;;7.25;;
81672;SDS011;71092;41.158;-8.680;2023-08-20T05:12:53;16.40;;;6.68;;
81672;SDS011;71092;41.158;-8.680;2023-08-20T05:15:19;16.35;;;7.22;;
81672;SDS011;71092;41.158;-8.680;2023-08-20T05:17:45;14.10;;;6.50;;
81672;SDS011;71092;41.158;-8.680;2023-08-20T05:20:12;16.60;;;7.00;;
81672;SDS011;71092;41.158;-8.680;2023-08-20T05:22:37;12.23;;;6.10;;
81672;SDS011;71092;41.158;-8.680;2023-08-20T05:25:03;17.02;;;7.00;;
81672;SDS011;71092;41.158;-8.680;2023-08-20T05:27:30;12.40;;;6.05;;
81672;SDS011;71092;41.158;-8.680;2023-08-20T05:29:57;15.30;;;6.75;;
81672;SDS011;71092;41.158;-8.680;2023-08-20T05:32:23;14.93;;;6.65;;
81672;SDS011;71092;41.158;-8.680;2023-08-20T05:34:49;13.48;;;6.00;;
81672;SDS011;71092;41.158;-8.680;2023-08-20T05:37:15;17.15;;;7.78;;
81672;SDS011;71092;41.158;-8.680;2023-08-20T05:39:41;13.82;;;6.05;;
81672;SDS011;71092;41.158;-8.680;2023-08-20T05:42:08;15.75;;;7.85;;
81672;SDS011;71092;41.158;-8.680;2023-08-20T05:44:34;16.17;;;8.65;;
81672;SDS011;71092;41.158;-8.680;2023-08-20T05:47:02;13.80;;;6.07;;
81672;SDS011;71092;41.158;-8.680;2023-08-20T05:49:28;13.48;;;6.53;;
81672;SDS011;71092;41.158;-8.680;2023-08-20T05:51:54;11.55;;;5.95;;
81672;SDS011;71092;41.158;-8.680;2023-08-20T05:54:20;14.57;;;6.60;;
81672;SDS011;71092;41.158;-8.680;2023-08-20T05:56:48;13.38;;;6.13;;
81672;SDS011;71092;41.158;-8.680;2023-08-20T05:59:14;14.90;;;6.53;;
81672;SDS011;71092;41.158;-8.680;2023-08-20T06:01:40;23.75;;;6.70;;
81672;SDS011;71092;41.158;-8.680;2023-08-20T06:04:06;15.10;;;6.63;;
81672;SDS011;71092;41.158;-8.680;2023-08-20T06:06:32;14.23;;;7.00;;
81672;SDS011;71092;41.158;-8.680;2023-08-20T06:08:58;12.75;;;6.25;;
81672;SDS011;71092;41.158;-8.680;2023-08-20T06:11:24;13.02;;;6.25;;
81672;SDS011;71092;41.158;-8.680;2023-08-20T06:13:50;14.30;;;6.28;;
81672;SDS011;71092;41.158;-8.680;2023-08-20T06:16:15;12.50;;;5.97;;
81672;SDS011;71092;41.158;-8.680;2023-08-20T06:18:41;12.10;;;5.90;;
81672;SDS011;71092;41.158;-8.680;2023-08-20T06:21:07;16.65;;;6.25;;
81672;SDS011;71092;41.158;-8.680;2023-08-20T06:23:33;13.52;;;6.05;;
81672;SDS011;71092;41.158;-8.680;2023-08-20T06:25:59;14.68;;;6.10;;
81672;SDS011;71092;41.158;-8.680;2023-08-20T06:28:25;14.68;;;6.43;;
81672;SDS011;71092;41.158;-8.680;2023-08-20T06:30:51;13.38;;;6.78;;
81672;SDS011;71092;41.158;-8.680;2023-08-20T06:33:17;14.20;;;5.75;;
81672;SDS011;71092;41.158;-8.680;2023-08-20T06:35:42;13.52;;;6.97;;
81672;SDS011;71092;41.158;-8.680;2023-08-20T06:38:08;17.23;;;7.47;;
81672;SDS011;71092;41.158;-8.680;2023-08-20T06:40:34;11.77;;;6.03;;
81672;SDS011;71092;41.158;-8.680;2023-08-20T06:43:00;12.32;;;5.65;;
81672;SDS011;71092;41.158;-8.680;2023-08-20T06:45:26;14.10;;;6.18;;
81672;SDS011;71092;41.158;-8.680;2023-08-20T06:47:52;12.43;;;6.10;;
81672;SDS011;71092;41.158;-8.680;2023-08-20T06:50:17;15.98;;;6.97;;
81672;SDS011;71092;41.158;-8.680;2023-08-20T06:52:43;12.13;;;5.65;;
81672;SDS011;71092;41.158;-8.680;2023-08-20T06:55:09;10.57;;;5.15;;
81672;SDS011;71092;41.158;-8.680;2023-08-20T06:57:35;12.25;;;5.95;;
81672;SDS011;71092;41.158;-8.680;2023-08-20T07:00:01;14.45;;;5.55;;
81672;SDS011;71092;41.158;-8.680;2023-08-20T07:02:29;11.90;;;6.00;;
81672;SDS011;71092;41.158;-8.680;2023-08-20T07:04:55;12.68;;;5.15;;
81672;SDS011;71092;41.158;-8.680;2023-08-20T07:07:21;12.18;;;5.70;;
81672;SDS011;71092;41.158;-8.680;2023-08-20T07:09:47;12.75;;;6.45;;
81672;SDS011;71092;41.158;-8.680;2023-08-20T07:12:13;11.38;;;6.00;;
81672;SDS011;71092;41.158;-8.680;2023-08-20T07:14:39;16.48;;;5.85;;
81672;SDS011;71092;41.158;-8.680;2023-08-20T07:17:05;12.55;;;6.03;;
81672;SDS011;71092;41.158;-8.680;2023-08-20T07:19:31;14.27;;;6.50;;
81672;SDS011;71092;41.158;-8.680;2023-08-20T07:21:57;14.68;;;5.68;;
81672;SDS011;71092;41.158;-8.680;2023-08-20T07:24:22;13.93;;;5.38;;
81672;SDS011;71092;41.158;-8.680;2023-08-20T07:26:51;13.55;;;5.38;;
81672;SDS011;71092;41.158;-8.680;2023-08-20T07:29:18;13.20;;;5.68;;
81672;SDS011;71092;41.158;-8.680;2023-08-20T07:31:44;11.90;;;5.03;;
81672;SDS011;71092;41.158;-8.680;2023-08-20T07:34:09;10.05;;;5.25;;
81672;SDS011;71092;41.158;-8.680;2023-08-20T07:36:35;11.05;;;5.00;;
81672;SDS011;71092;41.158;-8.680;2023-08-20T07:39:01;10.25;;;5.28;;
81672;SDS011;71092;41.158;-8.680;2023-08-20T07:41:28;11.52;;;5.53;;
81672;SDS011;71092;41.158;-8.680;2023-08-20T07:43:54;12.32;;;6.30;;
81672;SDS011;71092;41.158;-8.680;2023-08-20T07:46:19;12.82;;;5.82;;
81672;SDS011;71092;41.158;-8.680;2023-08-20T07:48:45;14.65;;;6.40;;
81672;SDS011;71092;41.158;-8.680;2023-08-20T07:51:11;19.55;;;6.03;;
81672;SDS011;71092;41.158;-8.680;2023-08-20T07:53:37;18.55;;;6.18;;
81672;SDS011;71092;41.158;-8.680;2023-08-20T07:56:03;15.30;;;6.45;;
81672;SDS011;71092;41.158;-8.680;2023-08-20T07:58:29;12.98;;;6.35;;
81672;SDS011;71092;41.158;-8.680;2023-08-20T08:00:55;11.55;;;5.40;;
81672;SDS011;71092;41.158;-8.680;2023-08-20T08:03:22;12.70;;;4.82;;
81672;SDS011;71092;41.158;-8.680;2023-08-20T08:05:48;9.80;;;4.97;;
81672;SDS011;71092;41.158;-8.680;2023-08-20T08:08:18;15.30;;;5.57;;
81672;SDS011;71092;41.158;-8.680;2023-08-20T08:10:44;11.23;;;5.55;;
81672;SDS011;71092;41.158;-8.680;2023-08-20T08:13:11;9.35;;;4.45;;
81672;SDS011;71092;41.158;-8.680;2023-08-20T08:15:37;11.35;;;4.72;;
81672;SDS011;71092;41.158;-8.680;2023-08-20T08:18:04;11.20;;;5.55;;
81672;SDS011;71092;41.158;-8.680;2023-08-20T08:20:29;11.00;;;4.53;;
81672;SDS011;71092;41.158;-8.680;2023-08-20T08:22:55;12.50;;;5.70;;
81672;SDS011;71092;41.158;-8.680;2023-08-20T08:25:21;12.43;;;6.25;;
81672;SDS011;71092;41.158;-8.680;2023-08-20T08:27:47;12.18;;;5.45;;
81672;SDS011;71092;41.158;-8.680;2023-08-20T08:30:13;13.82;;;5.88;;
81672;SDS011;71092;41.158;-8.680;2023-08-20T08:32:40;11.27;;;5.10;;
81672;SDS011;71092;41.158;-8.680;2023-08-20T08:35:06;13.85;;;5.93;;
81672;SDS011;71092;41.158;-8.680;2023-08-20T08:37:32;12.60;;;5.78;;
81672;SDS011;71092;41.158;-8.680;2023-08-20T08:39:58;15.85;;;6.25;;
81672;SDS011;71092;41.158;-8.680;2023-08-20T08:42:24;11.57;;;4.72;;
81672;SDS011;71092;41.158;-8.680;2023-08-20T08:44:50;14.57;;;5.38;;
81672;SDS011;71092;41.158;-8.680;2023-08-20T08:47:17;10.20;;;4.97;;
81672;SDS011;71092;41.158;-8.680;2023-08-20T08:49:44;12.68;;;5.05;;
81672;SDS011;71092;41.158;-8.680;2023-08-20T08:52:11;31.98;;;6.90;;
81672;SDS011;71092;41.158;-8.680;2023-08-20T08:54:37;33.90;;;6.40;;
81672;SDS011;71092;41.158;-8.680;2023-08-20T08:57:04;29.45;;;6.60;;
81672;SDS011;71092;41.158;-8.680;2023-08-20T08:59:30;44.40;;;6.95;;
81672;SDS011;71092;41.158;-8.680;2023-08-20T09:01:57;31.65;;;7.40;;
81672;SDS011;71092;41.158;-8.680;2023-08-20T09:04:23;35.75;;;7.03;;
81672;SDS011;71092;41.158;-8.680;2023-08-20T09:06:50;36.70;;;7.10;;
81672;SDS011;71092;41.158;-8.680;2023-08-20T09:09:17;31.60;;;5.90;;
81672;SDS011;71092;41.158;-8.680;2023-08-20T09:11:45;39.05;;;8.13;;
81672;SDS011;71092;41.158;-8.680;2023-08-20T09:14:20;27.50;;;6.13;;
81672;SDS011;71092;41.158;-8.680;2023-08-20T09:16:47;14.65;;;5.03;;
81672;SDS011;71092;41.158;-8.680;2023-08-20T09:19:19;32.22;;;8.52;;
81672;SDS011;71092;41.158;-8.680;2023-08-20T09:21:45;34.03;;;7.28;;
81672;SDS011;71092;41.158;-8.680;2023-08-20T09:24:12;17.80;;;4.90;;
81672;SDS011;71092;41.158;-8.680;2023-08-20T09:26:38;14.18;;;5.82;;
81672;SDS011;71092;41.158;-8.680;2023-08-20T09:29:04;12.95;;;4.75;;
81672;SDS011;71092;41.158;-8.680;2023-08-20T09:31:36;16.75;;;4.70;;
81672;SDS011;71092;41.158;-8.680;2023-08-20T09:34:04;15.00;;;5.55;;
81672;SDS011;71092;41.158;-8.680;2023-08-20T09:36:33;11.68;;;4.97;;
81672;SDS011;71092;41.158;-8.680;2023-08-20T09:39:01;16.65;;;6.20;;
81672;SDS011;71092;41.158;-8.680;2023-08-20T09:41:28;18.50;;;5.32;;
81672;SDS011;71092;41.158;-8.680;2023-08-20T09:43:58;10.50;;;4.63;;
81672;SDS011;71092;41.158;-8.680;2023-08-20T09:46:25;16.48;;;7.32;;
81672;SDS011;71092;41.158;-8.680;2023-08-20T09:48:54;15.00;;;5.63;;
81672;SDS011;71092;41.158;-8.680;2023-08-20T09:51:25;14.88;;;6.57;;
81672;SDS011;71092;41.158;-8.680;2023-08-20T09:56:39;19.10;;;5.80;;
81672;SDS011;71092;41.158;-8.680;2023-08-20T09:59:05;18.83;;;6.65;;
81672;SDS011;71092;41.158;-8.680;2023-08-20T10:01:32;16.40;;;5.93;;
81672;SDS011;71092;41.158;-8.680;2023-08-20T10:03:58;12.65;;;5.03;;
81672;SDS011;71092;41.158;-8.680;2023-08-20T10:06:25;17.13;;;6.22;;
81672;SDS011;71092;41.158;-8.680;2023-08-20T10:08:51;16.85;;;5.75;;
81672;SDS011;71092;41.158;-8.680;2023-08-20T10:11:18;15.25;;;5.00;;
81672;SDS011;71092;41.158;-8.680;2023-08-20T10:13:43;18.80;;;6.03;;
81672;SDS011;71092;41.158;-8.680;2023-08-20T10:16:12;15.05;;;5.00;;
81672;SDS011;71092;41.158;-8.680;2023-08-20T10:18:39;12.00;;;5.38;;
81672;SDS011;71092;41.158;-8.680;2023-08-20T10:21:05;14.57;;;4.95;;
81672;SDS011;71092;41.158;-8.680;2023-08-20T10:23:34;18.58;;;5.65;;
81672;SDS011;71092;41.158;-8.680;2023-08-20T10:26:08;20.13;;;6.30;;
81672;SDS011;71092;41.158;-8.680;2023-08-20T10:28:35;23.92;;;6.72;;
81672;SDS011;71092;41.158;-8.680;2023-08-20T10:31:10;16.13;;;6.15;;
81672;SDS011;71092;41.158;-8.680;2023-08-20T10:33:38;19.88;;;6.53;;
81672;SDS011;71092;41.158;-8.680;2023-08-20T10:36:18;21.77;;;5.68;;
81672;SDS011;71092;41.158;-8.680;2023-08-20T10:38:48;19.85;;;7.25;;
81672;SDS011;71092;41.158;-8.680;2023-08-20T10:41:15;22.42;;;6.70;;
81672;SDS011;71092;41.158;-8.680;2023-08-20T10:43:47;19.80;;;6.82;;
81672;SDS011;71092;41.158;-8.680;2023-08-20T10:46:15;23.60;;;6.80;;
81672;SDS011;71092;41.158;-8.680;2023-08-20T10:48:42;22.80;;;6.18;;
81672;SDS011;71092;41.158;-8.680;2023-08-20T10:51:09;21.27;;;5.93;;
81672;SDS011;71092;41.158;-8.680;2023-08-20T10:53:37;18.08;;;6.18;;
81672;SDS011;71092;41.158;-8.680;2023-08-20T10:56:10;16.58;;;6.05;;
81672;SDS011;71092;41.158;-8.680;2023-08-20T10:58:46;17.67;;;6.15;;
81672;SDS011;71092;41.158;-8.680;2023-08-20T11:01:13;14.88;;;5.35;;
81672;SDS011;71092;41.158;-8.680;2023-08-20T11:03:48;17.00;;;5.93;;
81672;SDS011;71092;41.158;-8.680;2023-08-20T11:06:15;18.30;;;6.53;;
81672;SDS011;71092;41.158;-8.680;2023-08-20T11:08:42;17.25;;;5.85;;
81672;SDS011;71092;41.158;-8.680;2023-08-20T11:11:08;15.90;;;5.53;;
81672;SDS011;71092;41.158;-8.680;2023-08-20T11:13:35;16.60;;;5.35;;
81672;SDS011;71092;41.158;-8.680;2023-08-20T11:16:02;11.68;;;5.18;;
81672;SDS011;71092;41.158;-8.680;2023-08-20T11:18:29;14.15;;;5.90;;
81672;SDS011;71092;41.158;-8.680;2023-08-20T11:20:56;16.75;;;5.55;;
81672;SDS011;71092;41.158;-8.680;2023-08-20T11:23:22;12.82;;;5.05;;
81672;SDS011;71092;41.158;-8.680;2023-08-20T11:25:48;15.65;;;5.32;;
81672;SDS011;71092;41.158;-8.680;2023-08-20T11:28:14;16.25;;;5.93;;
81672;SDS011;71092;41.158;-8.680;2023-08-20T11:30:40;13.65;;;5.32;;
81672;SDS011;71092;41.158;-8.680;2023-08-20T11:33:05;14.02;;;5.63;;
81672;SDS011;71092;41.158;-8.680;2023-08-20T11:35:32;13.80;;;6.22;;
81672;SDS011;71092;41.158;-8.680;2023-08-20T11:37:58;16.23;;;5.70;;
81672;SDS011;71092;41.158;-8.680;2023-08-20T11:40:24;13.98;;;5.88;;
81672;SDS011;71092;41.158;-8.680;2023-08-20T11:42:50;12.02;;;5.63;;
81672;SDS011;71092;41.158;-8.680;2023-08-20T11:45:16;14.95;;;6.25;;
81672;SDS011;71092;41.158;-8.680;2023-08-20T11:47:42;15.40;;;5.97;;
81672;SDS011;71092;41.158;-8.680;2023-08-20T11:50:08;14.55;;;5.10;;
81672;SDS011;71092;41.158;-8.680;2023-08-20T11:52:38;13.07;;;5.10;;
81672;SDS011;71092;41.158;-8.680;2023-08-20T11:55:05;14.65;;;5.63;;
81672;SDS011;71092;41.158;-8.680;2023-08-20T11:57:32;14.40;;;5.60;;
81672;SDS011;71092;41.158;-8.680;2023-08-20T12:00:04;13.68;;;5.32;;
81672;SDS011;71092;41.158;-8.680;2023-08-20T12:05:07;15.75;;;5.65;;
81672;SDS011;71092;41.158;-8.680;2023-08-20T12:07:33;16.30;;;5.53;;
81672;SDS011;71092;41.158;-8.680;2023-08-20T12:10:06;13.18;;;4.85;;
81672;SDS011;71092;41.158;-8.680;2023-08-20T12:12:45;17.05;;;5.07;;
81672;SDS011;71092;41.158;-8.680;2023-08-20T12:15:11;13.88;;;5.38;;
81672;SDS011;71092;41.158;-8.680;2023-08-20T12:17:38;11.77;;;5.47;;
81672;SDS011;71092;41.158;-8.680;2023-08-20T12:20:04;11.32;;;5.60;;
81672;SDS011;71092;41.158;-8.680;2023-08-20T12:22:39;10.93;;;5.00;;
81672;SDS011;71092;41.158;-8.680;2023-08-20T12:25:05;12.63;;;5.22;;
81672;SDS011;71092;41.158;-8.680;2023-08-20T12:27:32;14.23;;;4.57;;
81672;SDS011;71092;41.158;-8.680;2023-08-20T12:29:59;12.40;;;4.50;;
81672;SDS011;71092;41.158;-8.680;2023-08-20T12:32:24;11.45;;;5.45;;
81672;SDS011;71092;41.158;-8.680;2023-08-20T12:34:51;10.52;;;4.95;;
81672;SDS011;71092;41.158;-8.680;2023-08-20T12:37:16;14.05;;;5.03;;
81672;SDS011;71092;41.158;-8.680;2023-08-20T12:39:43;12.32;;;4.80;;
81672;SDS011;71092;41.158;-8.680;2023-08-20T12:42:09;11.45;;;4.72;;
81672;SDS011;71092;41.158;-8.680;2023-08-20T12:44:34;10.45;;;4.57;;
81672;SDS011;71092;41.158;-8.680;2023-08-20T12:47:00;10.00;;;4.68;;
81672;SDS011;71092;41.158;-8.680;2023-08-20T12:49:26;10.27;;;4.50;;
81672;SDS011;71092;41.158;-8.680;2023-08-20T12:51:52;11.55;;;4.63;;
81672;SDS011;71092;41.158;-8.680;2023-08-20T12:54:18;13.68;;;5.40;;
81672;SDS011;71092;41.158;-8.680;2023-08-20T12:56:44;10.60;;;4.93;;
81672;SDS011;71092;41.158;-8.680;2023-08-20T12:59:10;10.50;;;4.53;;
81672;SDS011;71092;41.158;-8.680;2023-08-20T13:01:36;11.43;;;5.68;;
81672;SDS011;71092;41.158;-8.680;2023-08-20T13:04:02;7.80;;;3.95;;
81672;SDS011;71092;41.158;-8.680;2023-08-20T13:06:29;10.32;;;4.72;;
81672;SDS011;71092;41.158;-8.680;2023-08-20T13:08:55;12.25;;;5.07;;
81672;SDS011;71092;41.158;-8.680;2023-08-20T13:11:21;10.88;;;5.10;;
81672;SDS011;71092;41.158;-8.680;2023-08-20T13:13:47;12.25;;;5.28;;
81672;SDS011;71092;41.158;-8.680;2023-08-20T13:16:13;12.05;;;5.70;;
81672;SDS011;71092;41.158;-8.680;2023-08-20T13:18:39;10.27;;;4.60;;
81672;SDS011;71092;41.158;-8.680;2023-08-20T13:21:05;12.60;;;5.53;;
81672;SDS011;71092;41.158;-8.680;2023-08-20T13:23:31;12.18;;;6.30;;
81672;SDS011;71092;41.158;-8.680;2023-08-20T13:25:57;11.98;;;4.85;;
81672;SDS011;71092;41.158;-8.680;2023-08-20T13:28:23;11.60;;;4.88;;
81672;SDS011;71092;41.158;-8.680;2023-08-20T13:30:48;13.40;;;5.13;;
81672;SDS011;71092;41.158;-8.680;2023-08-20T13:33:14;13.82;;;5.28;;
81672;SDS011;71092;41.158;-8.680;2023-08-20T13:35:40;11.45;;;5.43;;
81672;SDS011;71092;41.158;-8.680;2023-08-20T13:38:06;12.05;;;5.05;;
81672;SDS011;71092;41.158;-8.680;2023-08-20T13:40:33;11.55;;;5.38;;
81672;SDS011;71092;41.158;-8.680;2023-08-20T13:42:59;10.35;;;5.20;;
81672;SDS011;71092;41.158;-8.680;2023-08-20T13:45:25;11.15;;;5.40;;
81672;SDS011;71092;41.158;-8.680;2023-08-20T13:47:50;10.85;;;5.38;;
81672;SDS011;71092;41.158;-8.680;2023-08-20T13:50:16;12.48;;;5.07;;
81672;SDS011;71092;41.158;-8.680;2023-08-20T13:52:42;11.77;;;5.90;;
81672;SDS011;71092;41.158;-8.680;2023-08-20T13:55:08;13.18;;;5.65;;
81672;SDS011;71092;41.158;-8.680;2023-08-20T13:57:35;10.32;;;5.28;;
81672;SDS011;71092;41.158;-8.680;2023-08-20T14:00:01;10.95;;;5.82;;
81672;SDS011;71092;41.158;-8.680;2023-08-20T14:02:33;12.88;;;5.45;;
81672;SDS011;71092;41.158;-8.680;2023-08-20T14:04:58;9.88;;;5.00;;
81672;SDS011;71092;41.158;-8.680;2023-08-20T14:07:24;13.23;;;5.30;;
81672;SDS011;71092;41.158;-8.680;2023-08-20T14:09:51;14.02;;;6.07;;
81672;SDS011;71092;41.158;-8.680;2023-08-20T14:12:17;11.05;;;5.20;;
81672;SDS011;71092;41.158;-8.680;2023-08-20T14:14:42;10.10;;;6.25;;
81672;SDS011;71092;41.158;-8.680;2023-08-20T14:17:08;14.45;;;5.82;;
81672;SDS011;71092;41.158;-8.680;2023-08-20T14:19:34;10.57;;;5.43;;
81672;SDS011;71092;41.158;-8.680;2023-08-20T14:22:00;14.30;;;5.43;;
81672;SDS011;71092;41.158;-8.680;2023-08-20T14:24:26;18.98;;;5.50;;
81672;SDS011;71092;41.158;-8.680;2023-08-20T14:26:52;15.85;;;5.30;;
81672;SDS011;71092;41.158;-8.680;2023-08-20T14:29:18;18.35;;;6.18;;
81672;SDS011;71092;41.158;-8.680;2023-08-20T14:31:43;17.05;;;5.75;;
81672;SDS011;71092;41.158;-8.680;2023-08-20T14:34:09;27.83;;;6.93;;